sensor_id;sensor_type;location;lat;lon;timestamp;temperature;humidity
55064;DHT22;40963;52.168;21.296;2023-03-24T00:00:05;13.10;91.10
55064;DHT22;40963;52.168;21.296;2023-03-24T00:02:36;13.10;91.10
55064;DHT22;40963;52.168;21.296;2023-03-24T00:05:09;13.10;91.00
55064;DHT22;40963;52.168;21.296;2023-03-24T00:07:36;13.10;91.00
55064;DHT22;40963;52.168;21.296;2023-03-24T00:10:06;13.10;90.90
55064;DHT22;40963;52.168;21.296;2023-03-24T00:12:33;13.20;90.80
55064;DHT22;40963;52.168;21.296;2023-03-24T00:15:04;13.10;90.70
55064;DHT22;40963;52.168;21.296;2023-03-24T00:17:30;13.10;90.50
55064;DHT22;40963;52.168;21.296;2023-03-24T00:19:56;13.20;90.50
55064;DHT22;40963;52.168;21.296;2023-03-24T00:22:22;13.20;90.40
55064;DHT22;40963;52.168;21.296;2023-03-24T00:24:48;13.20;90.30
55064;DHT22;40963;52.168;21.296;2023-03-24T00:27:14;13.20;90.20
55064;DHT22;40963;52.168;21.296;2023-03-24T00:29:42;13.20;90.10
55064;DHT22;40963;52.168;21.296;2023-03-24T00:32:08;13.20;90.10
55064;DHT22;40963;52.168;21.296;2023-03-24T00:34:34;13.20;90.10
55064;DHT22;40963;52.168;21.296;2023-03-24T00:37:04;13.10;90.10
55064;DHT22;40963;52.168;21.296;2023-03-24T00:39:30;13.10;90.10
55064;DHT22;40963;52.168;21.296;2023-03-24T00:41:56;13.10;90.10
55064;DHT22;40963;52.168;21.296;2023-03-24T00:44:24;13.10;90.20
55064;DHT22;40963;52.168;21.296;2023-03-24T00:46:51;13.00;90.20
55064;DHT22;40963;52.168;21.296;2023-03-24T00:49:27;13.00;90.30
55064;DHT22;40963;52.168;21.296;2023-03-24T00:52:21;13.00;90.40
55064;DHT22;40963;52.168;21.296;2023-03-24T00:54:49;13.00;90.50
55064;DHT22;40963;52.168;21.296;2023-03-24T00:57:16;12.90;90.50
55064;DHT22;40963;52.168;21.296;2023-03-24T00:59:49;12.90;90.50
55064;DHT22;40963;52.168;21.296;2023-03-24T01:02:17;12.90;90.60
55064;DHT22;40963;52.168;21.296;2023-03-24T01:04:56;12.80;90.80
55064;DHT22;40963;52.168;21.296;2023-03-24T01:07:24;12.70;90.90
55064;DHT22;40963;52.168;21.296;2023-03-24T01:09:50;12.70;91.10
55064;DHT22;40963;52.168;21.296;2023-03-24T01:12:26;12.60;91.20
55064;DHT22;40963;52.168;21.296;2023-03-24T01:14:53;12.50;91.40
55064;DHT22;40963;52.168;21.296;2023-03-24T01:17:19;12.50;91.60
55064;DHT22;40963;52.168;21.296;2023-03-24T01:19:52;12.40;91.80
55064;DHT22;40963;52.168;21.296;2023-03-24T01:22:19;12.40;92.00
55064;DHT22;40963;52.168;21.296;2023-03-24T01:24:46;12.30;92.20
55064;DHT22;40963;52.168;21.296;2023-03-24T01:27:12;12.20;92.30
55064;DHT22;40963;52.168;21.296;2023-03-24T01:29:38;12.20;92.60
55064;DHT22;40963;52.168;21.296;2023-03-24T01:32:04;12.10;92.70
55064;DHT22;40963;52.168;21.296;2023-03-24T01:34:31;12.00;92.90
55064;DHT22;40963;52.168;21.296;2023-03-24T01:36:58;12.00;93.10
55064;DHT22;40963;52.168;21.296;2023-03-24T01:39:23;11.90;93.30
55064;DHT22;40963;52.168;21.296;2023-03-24T01:41:49;11.80;93.60
55064;DHT22;40963;52.168;21.296;2023-03-24T01:46:58;11.70;94.20
55064;DHT22;40963;52.168;21.296;2023-03-24T01:52:12;11.50;94.90
55064;DHT22;40963;52.168;21.296;2023-03-24T01:55:04;11.40;95.30
55064;DHT22;40963;52.168;21.296;2023-03-24T01:57:39;11.30;96.00
55064;DHT22;40963;52.168;21.296;2023-03-24T02:00:14;11.20;96.60
55064;DHT22;40963;52.168;21.296;2023-03-24T02:02:43;11.10;97.20
55064;DHT22;40963;52.168;21.296;2023-03-24T02:05:11;11.00;97.70
55064;DHT22;40963;52.168;21.296;2023-03-24T02:07:50;10.90;98.20
55064;DHT22;40963;52.168;21.296;2023-03-24T02:10:19;10.90;98.90
55064;DHT22;40963;52.168;21.296;2023-03-24T02:12:45;10.70;99.50
55064;DHT22;40963;52.168;21.296;2023-03-24T02:15:13;10.60;99.90
55064;DHT22;40963;52.168;21.296;2023-03-24T02:17:50;10.60;99.90
55064;DHT22;40963;52.168;21.296;2023-03-24T02:20:44;10.50;99.90
55064;DHT22;40963;52.168;21.296;2023-03-24T02:34:17;10.20;99.90
55064;DHT22;40963;52.168;21.296;2023-03-24T02:42:21;10.00;99.90
55064;DHT22;40963;52.168;21.296;2023-03-24T02:44:56;9.90;99.90
55064;DHT22;40963;52.168;21.296;2023-03-24T02:58:35;9.70;99.90
55064;DHT22;40963;52.168;21.296;2023-03-24T03:01:52;9.70;99.90
55064;DHT22;40963;52.168;21.296;2023-03-24T03:04:11;9.70;99.90
55064;DHT22;40963;52.168;21.296;2023-03-24T03:06:39;9.60;99.90
55064;DHT22;40963;52.168;21.296;2023-03-24T03:09:12;9.60;99.90
55064;DHT22;40963;52.168;21.296;2023-03-24T03:11:42;9.50;99.90
55064;DHT22;40963;52.168;21.296;2023-03-24T03:14:33;9.50;99.90
55064;DHT22;40963;52.168;21.296;2023-03-24T03:17:16;9.40;99.90
55064;DHT22;40963;52.168;21.296;2023-03-24T03:19:51;9.40;99.90
55064;DHT22;40963;52.168;21.296;2023-03-24T03:22:31;9.30;99.90
55064;DHT22;40963;52.168;21.296;2023-03-24T03:24:59;9.20;99.90
55064;DHT22;40963;52.168;21.296;2023-03-24T03:27:37;9.20;99.90
55064;DHT22;40963;52.168;21.296;2023-03-24T03:30:38;9.10;99.90
55064;DHT22;40963;52.168;21.296;2023-03-24T03:33:13;9.00;99.90
55064;DHT22;40963;52.168;21.296;2023-03-24T03:35:45;9.00;99.90
55064;DHT22;40963;52.168;21.296;2023-03-24T03:41:07;9.00;99.90
55064;DHT22;40963;52.168;21.296;2023-03-24T03:43:34;8.90;99.90
55064;DHT22;40963;52.168;21.296;2023-03-24T03:46:00;8.90;99.90
55064;DHT22;40963;52.168;21.296;2023-03-24T03:48:27;8.90;99.90
55064;DHT22;40963;52.168;21.296;2023-03-24T03:50:54;8.90;99.90
55064;DHT22;40963;52.168;21.296;2023-03-24T03:53:23;8.90;99.90
55064;DHT22;40963;52.168;21.296;2023-03-24T03:55:51;8.80;99.90
55064;DHT22;40963;52.168;21.296;2023-03-24T03:58:17;8.80;99.90
55064;DHT22;40963;52.168;21.296;2023-03-24T04:00:43;8.70;99.90
55064;DHT22;40963;52.168;21.296;2023-03-24T04:03:23;8.70;99.90
55064;DHT22;40963;52.168;21.296;2023-03-24T04:09:33;8.60;99.90
55064;DHT22;40963;52.168;21.296;2023-03-24T04:12:12;8.60;99.90
55064;DHT22;40963;52.168;21.296;2023-03-24T04:22:40;8.50;99.90
55064;DHT22;40963;52.168;21.296;2023-03-24T04:25:23;8.40;99.90
55064;DHT22;40963;52.168;21.296;2023-03-24T04:30:44;8.40;99.90
55064;DHT22;40963;52.168;21.296;2023-03-24T04:33:38;8.30;99.90
55064;DHT22;40963;52.168;21.296;2023-03-24T04:36:15;8.30;99.90
55064;DHT22;40963;52.168;21.296;2023-03-24T04:38:49;8.30;99.90
55064;DHT22;40963;52.168;21.296;2023-03-24T04:41:20;8.30;99.90
55064;DHT22;40963;52.168;21.296;2023-03-24T04:43:47;8.20;99.90
55064;DHT22;40963;52.168;21.296;2023-03-24T04:46:14;8.20;99.90
55064;DHT22;40963;52.168;21.296;2023-03-24T04:48:43;8.10;99.90
55064;DHT22;40963;52.168;21.296;2023-03-24T04:51:10;8.10;99.90
55064;DHT22;40963;52.168;21.296;2023-03-24T04:53:36;8.10;99.90
55064;DHT22;40963;52.168;21.296;2023-03-24T04:56:06;8.10;99.90
55064;DHT22;40963;52.168;21.296;2023-03-24T04:58:40;8.00;99.90
55064;DHT22;40963;52.168;21.296;2023-03-24T05:01:12;8.00;99.90
55064;DHT22;40963;52.168;21.296;2023-03-24T05:03:41;8.00;99.90
55064;DHT22;40963;52.168;21.296;2023-03-24T05:06:10;8.00;99.90
55064;DHT22;40963;52.168;21.296;2023-03-24T05:08:37;8.00;99.90
55064;DHT22;40963;52.168;21.296;2023-03-24T05:11:03;8.10;99.90
55064;DHT22;40963;52.168;21.296;2023-03-24T05:13:28;8.10;99.90
55064;DHT22;40963;52.168;21.296;2023-03-24T05:15:54;8.10;99.90
55064;DHT22;40963;52.168;21.296;2023-03-24T05:18:20;8.20;99.90
55064;DHT22;40963;52.168;21.296;2023-03-24T05:20:46;8.20;99.90
55064;DHT22;40963;52.168;21.296;2023-03-24T05:23:12;8.20;99.90
55064;DHT22;40963;52.168;21.296;2023-03-24T05:25:37;8.30;99.90
55064;DHT22;40963;52.168;21.296;2023-03-24T05:28:03;8.30;99.90
55064;DHT22;40963;52.168;21.296;2023-03-24T05:30:29;8.30;99.90
55064;DHT22;40963;52.168;21.296;2023-03-24T05:32:55;8.40;99.90
55064;DHT22;40963;52.168;21.296;2023-03-24T05:35:21;8.50;99.90
55064;DHT22;40963;52.168;21.296;2023-03-24T05:37:46;8.60;99.90
55064;DHT22;40963;52.168;21.296;2023-03-24T05:40:12;8.60;99.90
55064;DHT22;40963;52.168;21.296;2023-03-24T05:42:40;8.70;99.90
55064;DHT22;40963;52.168;21.296;2023-03-24T05:45:06;8.80;99.90
55064;DHT22;40963;52.168;21.296;2023-03-24T05:47:32;8.80;99.90
55064;DHT22;40963;52.168;21.296;2023-03-24T05:49:57;9.00;99.90
55064;DHT22;40963;52.168;21.296;2023-03-24T05:52:23;9.00;99.90
55064;DHT22;40963;52.168;21.296;2023-03-24T05:54:48;9.10;99.90
55064;DHT22;40963;52.168;21.296;2023-03-24T05:57:16;9.20;99.90
55064;DHT22;40963;52.168;21.296;2023-03-24T05:59:42;9.30;99.90
55064;DHT22;40963;52.168;21.296;2023-03-24T06:02:08;9.40;99.90
55064;DHT22;40963;52.168;21.296;2023-03-24T06:04:34;9.50;99.90
55064;DHT22;40963;52.168;21.296;2023-03-24T06:07:00;9.60;99.90
55064;DHT22;40963;52.168;21.296;2023-03-24T06:09:28;9.70;99.90
55064;DHT22;40963;52.168;21.296;2023-03-24T06:11:57;9.70;99.90
55064;DHT22;40963;52.168;21.296;2023-03-24T06:14:23;9.80;99.90
55064;DHT22;40963;52.168;21.296;2023-03-24T06:16:49;9.90;99.90
55064;DHT22;40963;52.168;21.296;2023-03-24T06:19:15;10.00;99.90
55064;DHT22;40963;52.168;21.296;2023-03-24T06:21:41;10.10;99.90
55064;DHT22;40963;52.168;21.296;2023-03-24T06:24:09;10.10;99.90
55064;DHT22;40963;52.168;21.296;2023-03-24T06:26:39;10.30;99.90
55064;DHT22;40963;52.168;21.296;2023-03-24T06:29:07;10.30;99.90
55064;DHT22;40963;52.168;21.296;2023-03-24T06:31:33;10.40;99.90
55064;DHT22;40963;52.168;21.296;2023-03-24T06:34:00;10.50;99.90
55064;DHT22;40963;52.168;21.296;2023-03-24T06:36:26;10.60;99.90
55064;DHT22;40963;52.168;21.296;2023-03-24T06:38:51;10.70;99.90
55064;DHT22;40963;52.168;21.296;2023-03-24T06:41:17;10.70;99.90
55064;DHT22;40963;52.168;21.296;2023-03-24T06:43:43;10.80;99.90
55064;DHT22;40963;52.168;21.296;2023-03-24T06:46:08;10.90;99.90
55064;DHT22;40963;52.168;21.296;2023-03-24T06:48:35;11.00;99.90
55064;DHT22;40963;52.168;21.296;2023-03-24T06:51:01;11.10;99.90
55064;DHT22;40963;52.168;21.296;2023-03-24T06:53:26;11.10;99.90
55064;DHT22;40963;52.168;21.296;2023-03-24T06:55:52;11.20;99.90
55064;DHT22;40963;52.168;21.296;2023-03-24T06:58:18;11.30;99.90
55064;DHT22;40963;52.168;21.296;2023-03-24T07:00:44;11.40;99.90
55064;DHT22;40963;52.168;21.296;2023-03-24T07:03:11;11.40;99.90
55064;DHT22;40963;52.168;21.296;2023-03-24T07:05:43;11.50;99.90
55064;DHT22;40963;52.168;21.296;2023-03-24T07:08:10;11.60;99.90
55064;DHT22;40963;52.168;21.296;2023-03-24T07:10:38;11.60;99.90
55064;DHT22;40963;52.168;21.296;2023-03-24T07:13:05;11.70;99.90
55064;DHT22;40963;52.168;21.296;2023-03-24T07:15:31;11.80;99.90
55064;DHT22;40963;52.168;21.296;2023-03-24T07:17:57;11.80;99.90
55064;DHT22;40963;52.168;21.296;2023-03-24T07:20:23;11.80;99.90
55064;DHT22;40963;52.168;21.296;2023-03-24T07:22:48;11.90;99.90
55064;DHT22;40963;52.168;21.296;2023-03-24T07:25:14;12.00;99.90
55064;DHT22;40963;52.168;21.296;2023-03-24T07:27:45;12.00;99.90
55064;DHT22;40963;52.168;21.296;2023-03-24T07:30:11;12.10;99.90
55064;DHT22;40963;52.168;21.296;2023-03-24T07:32:38;12.10;99.90
55064;DHT22;40963;52.168;21.296;2023-03-24T07:35:08;12.20;99.90
55064;DHT22;40963;52.168;21.296;2023-03-24T07:37:38;12.20;99.90
55064;DHT22;40963;52.168;21.296;2023-03-24T07:40:05;12.30;99.90
55064;DHT22;40963;52.168;21.296;2023-03-24T07:42:40;12.30;99.90
55064;DHT22;40963;52.168;21.296;2023-03-24T07:45:10;12.30;99.90
55064;DHT22;40963;52.168;21.296;2023-03-24T07:47:37;12.40;99.90
55064;DHT22;40963;52.168;21.296;2023-03-24T07:50:07;12.40;99.90
55064;DHT22;40963;52.168;21.296;2023-03-24T07:52:37;12.40;99.90
55064;DHT22;40963;52.168;21.296;2023-03-24T07:55:03;12.40;99.90
55064;DHT22;40963;52.168;21.296;2023-03-24T07:57:30;12.50;99.90
55064;DHT22;40963;52.168;21.296;2023-03-24T07:59:55;12.50;99.90
55064;DHT22;40963;52.168;21.296;2023-03-24T08:02:21;12.50;99.90
55064;DHT22;40963;52.168;21.296;2023-03-24T08:04:50;12.50;99.90
55064;DHT22;40963;52.168;21.296;2023-03-24T08:07:18;12.50;99.90
55064;DHT22;40963;52.168;21.296;2023-03-24T08:09:44;12.50;99.90
55064;DHT22;40963;52.168;21.296;2023-03-24T08:12:10;12.50;99.90
55064;DHT22;40963;52.168;21.296;2023-03-24T08:14:35;12.50;99.90
55064;DHT22;40963;52.168;21.296;2023-03-24T08:17:01;12.50;99.90
55064;DHT22;40963;52.168;21.296;2023-03-24T08:19:27;12.40;99.90
55064;DHT22;40963;52.168;21.296;2023-03-24T08:21:52;12.40;99.90
55064;DHT22;40963;52.168;21.296;2023-03-24T08:24:18;12.40;99.90
55064;DHT22;40963;52.168;21.296;2023-03-24T08:26:44;12.40;99.90
55064;DHT22;40963;52.168;21.296;2023-03-24T08:29:11;12.40;99.90
55064;DHT22;40963;52.168;21.296;2023-03-24T08:31:37;12.40;99.90
55064;DHT22;40963;52.168;21.296;2023-03-24T08:34:04;12.40;99.90
55064;DHT22;40963;52.168;21.296;2023-03-24T08:36:36;12.40;99.90
55064;DHT22;40963;52.168;21.296;2023-03-24T08:39:01;12.40;99.90
55064;DHT22;40963;52.168;21.296;2023-03-24T08:41:30;12.40;99.90
55064;DHT22;40963;52.168;21.296;2023-03-24T08:44:00;12.40;99.90
55064;DHT22;40963;52.168;21.296;2023-03-24T08:46:29;12.40;99.90
55064;DHT22;40963;52.168;21.296;2023-03-24T08:48:55;12.40;99.90
55064;DHT22;40963;52.168;21.296;2023-03-24T08:51:22;12.50;99.90
55064;DHT22;40963;52.168;21.296;2023-03-24T08:53:48;12.50;99.90
55064;DHT22;40963;52.168;21.296;2023-03-24T08:56:15;12.50;99.90
55064;DHT22;40963;52.168;21.296;2023-03-24T08:58:41;12.60;99.90
55064;DHT22;40963;52.168;21.296;2023-03-24T09:01:06;12.60;99.90
55064;DHT22;40963;52.168;21.296;2023-03-24T09:03:33;12.60;99.90
55064;DHT22;40963;52.168;21.296;2023-03-24T09:06:00;12.60;99.90
55064;DHT22;40963;52.168;21.296;2023-03-24T09:08:26;12.60;99.90
55064;DHT22;40963;52.168;21.296;2023-03-24T09:10:52;12.60;99.90
55064;DHT22;40963;52.168;21.296;2023-03-24T09:13:18;12.50;99.90
55064;DHT22;40963;52.168;21.296;2023-03-24T09:15:51;12.50;99.90
55064;DHT22;40963;52.168;21.296;2023-03-24T09:18:19;12.50;99.90
55064;DHT22;40963;52.168;21.296;2023-03-24T09:20:53;12.50;99.90
55064;DHT22;40963;52.168;21.296;2023-03-24T09:23:22;12.50;99.90
55064;DHT22;40963;52.168;21.296;2023-03-24T09:25:52;12.50;99.90
55064;DHT22;40963;52.168;21.296;2023-03-24T09:28:18;12.50;99.90
55064;DHT22;40963;52.168;21.296;2023-03-24T09:30:44;12.60;99.90
55064;DHT22;40963;52.168;21.296;2023-03-24T09:33:20;12.60;99.90
55064;DHT22;40963;52.168;21.296;2023-03-24T09:36:02;12.70;99.90
55064;DHT22;40963;52.168;21.296;2023-03-24T09:38:33;12.80;99.90
55064;DHT22;40963;52.168;21.296;2023-03-24T09:41:00;13.00;99.90
55064;DHT22;40963;52.168;21.296;2023-03-24T09:43:47;13.20;99.90
55064;DHT22;40963;52.168;21.296;2023-03-24T09:46:25;13.30;99.90
55064;DHT22;40963;52.168;21.296;2023-03-24T09:48:55;13.50;99.90
55064;DHT22;40963;52.168;21.296;2023-03-24T09:54:02;13.80;99.90
55064;DHT22;40963;52.168;21.296;2023-03-24T09:56:31;14.00;99.90
55064;DHT22;40963;52.168;21.296;2023-03-24T09:59:04;14.20;99.90
55064;DHT22;40963;52.168;21.296;2023-03-24T10:01:30;14.40;99.90
55064;DHT22;40963;52.168;21.296;2023-03-24T10:03:58;14.50;99.90
55064;DHT22;40963;52.168;21.296;2023-03-24T10:06:36;14.60;99.90
55064;DHT22;40963;52.168;21.296;2023-03-24T10:09:36;14.70;99.90
55064;DHT22;40963;52.168;21.296;2023-03-24T10:12:16;14.80;99.90
55064;DHT22;40963;52.168;21.296;2023-03-24T10:28:15;15.30;99.90
55064;DHT22;40963;52.168;21.296;2023-03-24T10:30:43;15.40;99.90
55064;DHT22;40963;52.168;21.296;2023-03-24T10:33:11;15.40;99.90
55064;DHT22;40963;52.168;21.296;2023-03-24T10:35:41;15.50;99.90
55064;DHT22;40963;52.168;21.296;2023-03-24T10:38:18;15.50;99.90
55064;DHT22;40963;52.168;21.296;2023-03-24T10:40:46;15.50;99.90
55064;DHT22;40963;52.168;21.296;2023-03-24T10:43:13;15.60;99.90
55064;DHT22;40963;52.168;21.296;2023-03-24T10:45:42;15.60;99.90
55064;DHT22;40963;52.168;21.296;2023-03-24T10:48:11;15.60;99.90
55064;DHT22;40963;52.168;21.296;2023-03-24T10:50:43;15.60;99.90
55064;DHT22;40963;52.168;21.296;2023-03-24T10:53:19;15.70;99.90
55064;DHT22;40963;52.168;21.296;2023-03-24T10:55:45;15.70;99.90
55064;DHT22;40963;52.168;21.296;2023-03-24T11:00:44;15.70;99.90
55064;DHT22;40963;52.168;21.296;2023-03-24T11:03:14;15.70;99.90
55064;DHT22;40963;52.168;21.296;2023-03-24T11:05:42;15.70;99.90
55064;DHT22;40963;52.168;21.296;2023-03-24T11:08:35;15.70;99.90
55064;DHT22;40963;52.168;21.296;2023-03-24T11:11:30;15.60;99.90
55064;DHT22;40963;52.168;21.296;2023-03-24T11:13:58;15.60;99.90
55064;DHT22;40963;52.168;21.296;2023-03-24T11:16:37;15.60;99.90
55064;DHT22;40963;52.168;21.296;2023-03-24T11:19:05;15.60;99.90
55064;DHT22;40963;52.168;21.296;2023-03-24T11:21:35;15.60;99.90
55064;DHT22;40963;52.168;21.296;2023-03-24T11:24:07;15.50;99.90
55064;DHT22;40963;52.168;21.296;2023-03-24T11:26:35;15.50;99.90
55064;DHT22;40963;52.168;21.296;2023-03-24T11:29:11;15.50;99.90
55064;DHT22;40963;52.168;21.296;2023-03-24T11:31:39;15.40;99.90
55064;DHT22;40963;52.168;21.296;2023-03-24T11:34:27;15.40;99.90
55064;DHT22;40963;52.168;21.296;2023-03-24T11:40:23;15.50;99.90
55064;DHT22;40963;52.168;21.296;2023-03-24T11:42:59;15.40;99.90
55064;DHT22;40963;52.168;21.296;2023-03-24T11:45:36;15.50;99.90
55064;DHT22;40963;52.168;21.296;2023-03-24T11:48:37;15.50;99.90
55064;DHT22;40963;52.168;21.296;2023-03-24T11:51:05;15.60;99.90
55064;DHT22;40963;52.168;21.296;2023-03-24T11:56:30;15.60;99.90
55064;DHT22;40963;52.168;21.296;2023-03-24T12:13:20;15.70;99.90
55064;DHT22;40963;52.168;21.296;2023-03-24T12:16:13;15.80;99.90
55064;DHT22;40963;52.168;21.296;2023-03-24T12:22:15;15.90;99.90
55064;DHT22;40963;52.168;21.296;2023-03-24T12:30:42;16.10;99.60
55064;DHT22;40963;52.168;21.296;2023-03-24T12:33:35;16.20;99.40
55064;DHT22;40963;52.168;21.296;2023-03-24T12:36:29;16.30;99.00
55064;DHT22;40963;52.168;21.296;2023-03-24T12:55:25;17.00;94.00
55064;DHT22;40963;52.168;21.296;2023-03-24T12:58:03;17.20;92.60
55064;DHT22;40963;52.168;21.296;2023-03-24T13:00:54;17.30;91.80
55064;DHT22;40963;52.168;21.296;2023-03-24T13:03:29;17.50;90.70
55064;DHT22;40963;52.168;21.296;2023-03-24T13:05:58;17.70;89.50
55064;DHT22;40963;52.168;21.296;2023-03-24T13:08:28;17.80;87.10
55064;DHT22;40963;52.168;21.296;2023-03-24T13:11:08;17.90;85.00
55064;DHT22;40963;52.168;21.296;2023-03-24T13:13:42;18.00;83.10
55064;DHT22;40963;52.168;21.296;2023-03-24T13:16:21;18.10;81.90
55064;DHT22;40963;52.168;21.296;2023-03-24T13:18:53;18.10;80.30
55064;DHT22;40963;52.168;21.296;2023-03-24T13:21:22;18.10;79.40
55064;DHT22;40963;52.168;21.296;2023-03-24T13:23:54;18.30;79.00
55064;DHT22;40963;52.168;21.296;2023-03-24T13:26:49;18.30;78.40
55064;DHT22;40963;52.168;21.296;2023-03-24T13:32:13;18.50;77.20
55064;DHT22;40963;52.168;21.296;2023-03-24T13:37:28;18.60;75.10
55064;DHT22;40963;52.168;21.296;2023-03-24T13:40:04;18.70;74.30
55064;DHT22;40963;52.168;21.296;2023-03-24T13:42:53;18.80;74.20
55064;DHT22;40963;52.168;21.296;2023-03-24T13:50:23;18.70;71.30
55064;DHT22;40963;52.168;21.296;2023-03-24T13:52:50;18.70;71.60
55064;DHT22;40963;52.168;21.296;2023-03-24T13:55:29;18.70;71.40
55064;DHT22;40963;52.168;21.296;2023-03-24T13:58:22;18.70;71.50
55064;DHT22;40963;52.168;21.296;2023-03-24T14:03:45;18.70;71.40
55064;DHT22;40963;52.168;21.296;2023-03-24T14:06:22;18.70;71.30
55064;DHT22;40963;52.168;21.296;2023-03-24T14:09:15;18.70;71.10
55064;DHT22;40963;52.168;21.296;2023-03-24T14:11:43;18.70;70.60
55064;DHT22;40963;52.168;21.296;2023-03-24T14:14:16;18.70;70.10
55064;DHT22;40963;52.168;21.296;2023-03-24T14:22:21;18.80;69.60
55064;DHT22;40963;52.168;21.296;2023-03-24T14:25:00;18.80;69.50
55064;DHT22;40963;52.168;21.296;2023-03-24T14:27:40;18.80;69.40
55064;DHT22;40963;52.168;21.296;2023-03-24T14:32:45;18.80;69.40
55064;DHT22;40963;52.168;21.296;2023-03-24T14:38:04;18.80;69.30
55064;DHT22;40963;52.168;21.296;2023-03-24T14:40:42;18.80;69.30
55064;DHT22;40963;52.168;21.296;2023-03-24T14:49:22;18.80;68.80
55064;DHT22;40963;52.168;21.296;2023-03-24T14:54:17;18.80;68.70
55064;DHT22;40963;52.168;21.296;2023-03-24T14:56:49;18.80;68.70
55064;DHT22;40963;52.168;21.296;2023-03-24T15:07:40;18.80;68.20
55064;DHT22;40963;52.168;21.296;2023-03-24T15:10:12;18.80;68.10
55064;DHT22;40963;52.168;21.296;2023-03-24T15:12:43;18.80;68.10
55064;DHT22;40963;52.168;21.296;2023-03-24T15:15:23;18.80;68.60
55064;DHT22;40963;52.168;21.296;2023-03-24T15:17:50;18.80;67.90
55064;DHT22;40963;52.168;21.296;2023-03-24T15:20:29;18.70;67.80
55064;DHT22;40963;52.168;21.296;2023-03-24T15:23:06;18.70;67.80
55064;DHT22;40963;52.168;21.296;2023-03-24T15:25:32;18.70;67.80
55064;DHT22;40963;52.168;21.296;2023-03-24T15:27:58;18.70;67.80
55064;DHT22;40963;52.168;21.296;2023-03-24T15:30:24;18.70;67.90
55064;DHT22;40963;52.168;21.296;2023-03-24T15:32:51;18.60;67.80
55064;DHT22;40963;52.168;21.296;2023-03-24T15:35:20;18.50;67.80
55064;DHT22;40963;52.168;21.296;2023-03-24T15:37:54;18.60;67.90
55064;DHT22;40963;52.168;21.296;2023-03-24T15:42:59;18.50;67.90
55064;DHT22;40963;52.168;21.296;2023-03-24T15:45:28;18.50;67.80
55064;DHT22;40963;52.168;21.296;2023-03-24T15:47:55;18.50;67.80
55064;DHT22;40963;52.168;21.296;2023-03-24T15:51:00;18.50;67.80
55064;DHT22;40963;52.168;21.296;2023-03-24T15:53:38;18.40;67.70
55064;DHT22;40963;52.168;21.296;2023-03-24T15:56:16;18.40;67.50
55064;DHT22;40963;52.168;21.296;2023-03-24T16:01:16;18.40;67.60
55064;DHT22;40963;52.168;21.296;2023-03-24T16:03:42;18.40;67.80
55064;DHT22;40963;52.168;21.296;2023-03-24T16:06:14;18.30;67.80
55064;DHT22;40963;52.168;21.296;2023-03-24T16:08:41;18.30;68.00
55064;DHT22;40963;52.168;21.296;2023-03-24T16:11:16;18.30;68.20
55064;DHT22;40963;52.168;21.296;2023-03-24T16:13:43;18.20;68.30
55064;DHT22;40963;52.168;21.296;2023-03-24T16:18:42;18.10;68.60
55064;DHT22;40963;52.168;21.296;2023-03-24T16:21:19;18.10;68.70
55064;DHT22;40963;52.168;21.296;2023-03-24T16:23:45;18.10;69.10
55064;DHT22;40963;52.168;21.296;2023-03-24T16:26:13;18.00;69.50
55064;DHT22;40963;52.168;21.296;2023-03-24T16:28:39;18.00;69.80
55064;DHT22;40963;52.168;21.296;2023-03-24T16:31:05;17.90;70.10
55064;DHT22;40963;52.168;21.296;2023-03-24T16:33:31;17.90;70.30
55064;DHT22;40963;52.168;21.296;2023-03-24T16:35:58;17.80;70.50
55064;DHT22;40963;52.168;21.296;2023-03-24T16:38:25;17.80;70.80
55064;DHT22;40963;52.168;21.296;2023-03-24T16:40:55;17.70;71.00
55064;DHT22;40963;52.168;21.296;2023-03-24T16:43:22;17.70;71.30
55064;DHT22;40963;52.168;21.296;2023-03-24T16:45:49;17.60;71.40
55064;DHT22;40963;52.168;21.296;2023-03-24T16:48:16;17.60;71.50
55064;DHT22;40963;52.168;21.296;2023-03-24T16:50:46;17.60;71.60
55064;DHT22;40963;52.168;21.296;2023-03-24T16:53:14;17.60;71.70
55064;DHT22;40963;52.168;21.296;2023-03-24T16:55:40;17.50;71.80
55064;DHT22;40963;52.168;21.296;2023-03-24T16:58:07;17.60;71.90
55064;DHT22;40963;52.168;21.296;2023-03-24T17:00:34;17.50;72.10
55064;DHT22;40963;52.168;21.296;2023-03-24T17:03:04;17.50;72.50
55064;DHT22;40963;52.168;21.296;2023-03-24T17:05:39;17.50;72.90
55064;DHT22;40963;52.168;21.296;2023-03-24T17:08:05;17.40;73.40
55064;DHT22;40963;52.168;21.296;2023-03-24T17:10:31;17.30;74.00
55064;DHT22;40963;52.168;21.296;2023-03-24T17:12:57;17.30;74.70
55064;DHT22;40963;52.168;21.296;2023-03-24T17:15:28;17.20;75.20
55064;DHT22;40963;52.168;21.296;2023-03-24T17:17:55;17.10;75.90
55064;DHT22;40963;52.168;21.296;2023-03-24T17:20:22;17.00;76.50
55064;DHT22;40963;52.168;21.296;2023-03-24T17:22:50;16.90;77.10
55064;DHT22;40963;52.168;21.296;2023-03-24T17:25:19;16.90;77.70
55064;DHT22;40963;52.168;21.296;2023-03-24T17:27:49;16.80;78.30
55064;DHT22;40963;52.168;21.296;2023-03-24T17:30:20;16.70;78.90
55064;DHT22;40963;52.168;21.296;2023-03-24T17:32:47;16.60;80.10
55064;DHT22;40963;52.168;21.296;2023-03-24T17:35:15;16.50;81.70
55064;DHT22;40963;52.168;21.296;2023-03-24T17:37:41;16.40;82.70
55064;DHT22;40963;52.168;21.296;2023-03-24T17:40:10;16.30;84.80
55064;DHT22;40963;52.168;21.296;2023-03-24T17:42:38;16.20;86.90
55064;DHT22;40963;52.168;21.296;2023-03-24T17:45:06;16.10;90.00
55064;DHT22;40963;52.168;21.296;2023-03-24T17:47:32;15.90;91.90
55064;DHT22;40963;52.168;21.296;2023-03-24T17:49:58;15.70;94.60
55064;DHT22;40963;52.168;21.296;2023-03-24T17:52:24;15.60;97.40
55064;DHT22;40963;52.168;21.296;2023-03-24T17:54:50;15.40;99.90
55064;DHT22;40963;52.168;21.296;2023-03-24T17:57:16;15.30;99.90
55064;DHT22;40963;52.168;21.296;2023-03-24T17:59:42;15.20;99.90
55064;DHT22;40963;52.168;21.296;2023-03-24T18:02:11;15.00;99.90
55064;DHT22;40963;52.168;21.296;2023-03-24T18:04:37;14.90;99.90
55064;DHT22;40963;52.168;21.296;2023-03-24T18:07:02;14.80;99.90
55064;DHT22;40963;52.168;21.296;2023-03-24T18:09:31;14.70;99.90
55064;DHT22;40963;52.168;21.296;2023-03-24T18:11:57;14.60;99.90
55064;DHT22;40963;52.168;21.296;2023-03-24T18:14:23;14.50;99.90
55064;DHT22;40963;52.168;21.296;2023-03-24T18:16:49;14.40;99.90
55064;DHT22;40963;52.168;21.296;2023-03-24T18:19:15;14.30;99.90
55064;DHT22;40963;52.168;21.296;2023-03-24T18:21:41;14.30;99.90
55064;DHT22;40963;52.168;21.296;2023-03-24T18:24:09;14.20;99.90